sensor_id;sensor_type;location;lat;lon;timestamp;P1;durP1;ratioP1;P2;durP2;ratioP2
9447;SDS011;4762;48.128;11.376;2024-01-30T00:01:05;9.13;;;4.07;;
9447;SDS011;4762;48.128;11.376;2024-01-30T00:03:07;4.73;;;2.20;;
9447;SDS011;4762;48.128;11.376;2024-01-30T00:05:09;13.27;;;3.37;;
9447;SDS011;4762;48.128;11.376;2024-01-30T00:07:11;4.67;;;3.33;;
9447;SDS011;4762;48.128;11.376;2024-01-30T00:09:14;3.97;;;2.67;;
9447;SDS011;4762;48.128;11.376;2024-01-30T00:11:16;6.33;;;2.80;;
9447;SDS011;4762;48.128;11.376;2024-01-30T00:13:18;5.60;;;3.20;;
9447;SDS011;4762;48.128;11.376;2024-01-30T00:15:21;8.87;;;2.90;;
9447;SDS011;4762;48.128;11.376;2024-01-30T00:17:23;6.13;;;3.00;;
9447;SDS011;4762;48.128;11.376;2024-01-30T00:19:25;3.43;;;2.40;;
9447;SDS011;4762;48.128;11.376;2024-01-30T00:21:28;8.60;;;3.40;;
9447;SDS011;4762;48.128;11.376;2024-01-30T00:23:30;3.93;;;2.77;;
9447;SDS011;4762;48.128;11.376;2024-01-30T00:25:32;4.23;;;2.80;;
9447;SDS011;4762;48.128;11.376;2024-01-30T00:27:34;6.37;;;3.90;;
9447;SDS011;4762;48.128;11.376;2024-01-30T00:29:37;6.33;;;3.37;;
9447;SDS011;4762;48.128;11.376;2024-01-30T00:31:40;7.53;;;3.40;;
9447;SDS011;4762;48.128;11.376;2024-01-30T00:33:42;6.23;;;3.60;;
9447;SDS011;4762;48.128;11.376;2024-01-30T00:35:44;5.63;;;3.40;;
9447;SDS011;4762;48.128;11.376;2024-01-30T00:37:47;5.87;;;2.93;;
9447;SDS011;4762;48.128;11.376;2024-01-30T00:39:49;7.13;;;4.00;;
9447;SDS011;4762;48.128;11.376;2024-01-30T00:41:51;7.33;;;2.60;;
9447;SDS011;4762;48.128;11.376;2024-01-30T00:43:54;4.60;;;3.37;;
9447;SDS011;4762;48.128;11.376;2024-01-30T00:45:56;10.50;;;3.20;;
9447;SDS011;4762;48.128;11.376;2024-01-30T00:47:58;20.70;;;4.40;;
9447;SDS011;4762;48.128;11.376;2024-01-30T00:50:02;5.90;;;3.67;;
9447;SDS011;4762;48.128;11.376;2024-01-30T00:52:04;7.70;;;3.30;;
9447;SDS011;4762;48.128;11.376;2024-01-30T00:54:07;6.73;;;4.20;;
9447;SDS011;4762;48.128;11.376;2024-01-30T00:56:10;7.93;;;3.70;;
9447;SDS011;4762;48.128;11.376;2024-01-30T00:58:12;10.13;;;2.93;;
9447;SDS011;4762;48.128;11.376;2024-01-30T01:00:14;3.50;;;2.20;;
9447;SDS011;4762;48.128;11.376;2024-01-30T01:02:17;4.03;;;2.40;;
9447;SDS011;4762;48.128;11.376;2024-01-30T01:04:19;4.60;;;3.30;;
9447;SDS011;4762;48.128;11.376;2024-01-30T01:06:21;6.87;;;3.10;;
9447;SDS011;4762;48.128;11.376;2024-01-30T01:08:24;7.53;;;2.70;;
9447;SDS011;4762;48.128;11.376;2024-01-30T01:10:28;4.00;;;2.97;;
9447;SDS011;4762;48.128;11.376;2024-01-30T01:12:30;5.50;;;2.60;;
9447;SDS011;4762;48.128;11.376;2024-01-30T01:14:33;4.10;;;2.77;;
9447;SDS011;4762;48.128;11.376;2024-01-30T01:16:35;3.00;;;2.37;;
9447;SDS011;4762;48.128;11.376;2024-01-30T01:18:37;5.50;;;2.90;;
9447;SDS011;4762;48.128;11.376;2024-01-30T01:20:41;2.93;;;2.40;;
9447;SDS011;4762;48.128;11.376;2024-01-30T01:22:44;4.10;;;2.30;;
9447;SDS011;4762;48.128;11.376;2024-01-30T01:24:47;5.77;;;2.77;;
9447;SDS011;4762;48.128;11.376;2024-01-30T01:26:49;3.83;;;2.53;;
9447;SDS011;4762;48.128;11.376;2024-01-30T01:28:51;3.00;;;2.30;;
9447;SDS011;4762;48.128;11.376;2024-01-30T01:30:53;4.10;;;2.97;;
9447;SDS011;4762;48.128;11.376;2024-01-30T01:32:56;3.33;;;2.43;;
9447;SDS011;4762;48.128;11.376;2024-01-30T01:34:59;2.87;;;2.40;;
9447;SDS011;4762;48.128;11.376;2024-01-30T01:37:02;5.43;;;2.43;;
9447;SDS011;4762;48.128;11.376;2024-01-30T01:39:04;3.40;;;2.17;;
9447;SDS011;4762;48.128;11.376;2024-01-30T01:41:07;4.80;;;2.40;;
9447;SDS011;4762;48.128;11.376;2024-01-30T01:43:10;4.93;;;2.77;;
9447;SDS011;4762;48.128;11.376;2024-01-30T01:45:13;3.73;;;2.80;;
9447;SDS011;4762;48.128;11.376;2024-01-30T01:47:15;2.93;;;2.10;;
9447;SDS011;4762;48.128;11.376;2024-01-30T01:49:19;2.80;;;1.77;;
9447;SDS011;4762;48.128;11.376;2024-01-30T01:51:21;5.13;;;2.30;;
9447;SDS011;4762;48.128;11.376;2024-01-30T01:53:24;12.83;;;3.10;;
9447;SDS011;4762;48.128;11.376;2024-01-30T01:55:26;4.10;;;3.00;;
9447;SDS011;4762;48.128;11.376;2024-01-30T01:57:29;4.60;;;2.77;;
9447;SDS011;4762;48.128;11.376;2024-01-30T01:59:31;4.57;;;2.60;;
9447;SDS011;4762;48.128;11.376;2024-01-30T02:01:36;3.40;;;2.40;;
9447;SDS011;4762;48.128;11.376;2024-01-30T02:03:38;5.83;;;2.30;;
9447;SDS011;4762;48.128;11.376;2024-01-30T02:05:41;3.10;;;1.70;;
9447;SDS011;4762;48.128;11.376;2024-01-30T02:07:45;4.23;;;2.67;;
9447;SDS011;4762;48.128;11.376;2024-01-30T02:09:47;4.93;;;1.90;;
9447;SDS011;4762;48.128;11.376;2024-01-30T02:11:51;4.00;;;2.53;;
9447;SDS011;4762;48.128;11.376;2024-01-30T02:13:53;3.30;;;1.83;;
9447;SDS011;4762;48.128;11.376;2024-01-30T02:15:56;2.70;;;1.60;;
9447;SDS011;4762;48.128;11.376;2024-01-30T02:17:59;2.93;;;1.90;;
9447;SDS011;4762;48.128;11.376;2024-01-30T02:20:01;9.83;;;2.50;;
9447;SDS011;4762;48.128;11.376;2024-01-30T02:22:03;4.20;;;2.07;;
9447;SDS011;4762;48.128;11.376;2024-01-30T02:24:05;3.50;;;2.10;;
9447;SDS011;4762;48.128;11.376;2024-01-30T02:26:09;2.90;;;2.10;;
9447;SDS011;4762;48.128;11.376;2024-01-30T02:28:12;3.07;;;1.97;;
9447;SDS011;4762;48.128;11.376;2024-01-30T02:30:14;2.93;;;2.03;;
9447;SDS011;4762;48.128;11.376;2024-01-30T02:32:16;2.80;;;1.90;;
9447;SDS011;4762;48.128;11.376;2024-01-30T02:34:19;2.63;;;2.00;;
9447;SDS011;4762;48.128;11.376;2024-01-30T02:36:22;2.73;;;2.07;;
9447;SDS011;4762;48.128;11.376;2024-01-30T02:38:24;7.23;;;3.17;;
9447;SDS011;4762;48.128;11.376;2024-01-30T02:40:27;4.10;;;2.00;;
9447;SDS011;4762;48.128;11.376;2024-01-30T02:42:30;6.80;;;2.90;;
9447;SDS011;4762;48.128;11.376;2024-01-30T02:44:33;3.07;;;2.13;;
9447;SDS011;4762;48.128;11.376;2024-01-30T02:46:36;4.13;;;2.20;;
9447;SDS011;4762;48.128;11.376;2024-01-30T02:48:39;3.63;;;2.30;;
9447;SDS011;4762;48.128;11.376;2024-01-30T02:50:41;5.40;;;2.40;;
9447;SDS011;4762;48.128;11.376;2024-01-30T02:52:44;4.17;;;2.17;;
9447;SDS011;4762;48.128;11.376;2024-01-30T02:54:47;7.07;;;2.97;;
9447;SDS011;4762;48.128;11.376;2024-01-30T02:56:49;4.17;;;2.43;;
9447;SDS011;4762;48.128;11.376;2024-01-30T02:58:51;2.93;;;2.00;;
9447;SDS011;4762;48.128;11.376;2024-01-30T03:00:53;6.10;;;2.93;;
9447;SDS011;4762;48.128;11.376;2024-01-30T03:02:56;1.90;;;1.53;;
9447;SDS011;4762;48.128;11.376;2024-01-30T03:04:59;3.30;;;2.00;;
9447;SDS011;4762;48.128;11.376;2024-01-30T03:07:00;2.67;;;1.90;;
9447;SDS011;4762;48.128;11.376;2024-01-30T03:09:02;4.30;;;2.53;;
9447;SDS011;4762;48.128;11.376;2024-01-30T03:11:04;4.60;;;1.57;;
9447;SDS011;4762;48.128;11.376;2024-01-30T03:13:07;2.60;;;1.67;;
9447;SDS011;4762;48.128;11.376;2024-01-30T03:15:11;5.67;;;2.00;;
9447;SDS011;4762;48.128;11.376;2024-01-30T03:17:13;6.47;;;2.43;;
9447;SDS011;4762;48.128;11.376;2024-01-30T03:19:15;1.90;;;1.27;;
9447;SDS011;4762;48.128;11.376;2024-01-30T03:21:17;2.13;;;1.80;;
9447;SDS011;4762;48.128;11.376;2024-01-30T03:23:19;4.50;;;2.40;;
9447;SDS011;4762;48.128;11.376;2024-01-30T03:25:22;2.77;;;1.83;;
9447;SDS011;4762;48.128;11.376;2024-01-30T03:27:24;3.70;;;2.50;;
9447;SDS011;4762;48.128;11.376;2024-01-30T03:29:26;3.13;;;2.10;;
9447;SDS011;4762;48.128;11.376;2024-01-30T03:31:28;3.90;;;2.17;;
9447;SDS011;4762;48.128;11.376;2024-01-30T03:33:31;3.80;;;2.10;;
9447;SDS011;4762;48.128;11.376;2024-01-30T03:35:33;3.27;;;1.93;;
9447;SDS011;4762;48.128;11.376;2024-01-30T03:37:35;4.03;;;2.07;;
9447;SDS011;4762;48.128;11.376;2024-01-30T03:39:37;5.13;;;1.93;;
9447;SDS011;4762;48.128;11.376;2024-01-30T03:41:41;6.13;;;2.53;;
9447;SDS011;4762;48.128;11.376;2024-01-30T03:43:42;3.53;;;2.17;;
9447;SDS011;4762;48.128;11.376;2024-01-30T03:45:44;5.77;;;2.67;;
9447;SDS011;4762;48.128;11.376;2024-01-30T03:47:46;2.87;;;1.87;;
9447;SDS011;4762;48.128;11.376;2024-01-30T03:49:48;2.50;;;1.73;;
9447;SDS011;4762;48.128;11.376;2024-01-30T03:51:51;3.83;;;1.97;;
9447;SDS011;4762;48.128;11.376;2024-01-30T03:53:53;3.90;;;2.30;;
9447;SDS011;4762;48.128;11.376;2024-01-30T03:55:55;4.03;;;1.97;;
9447;SDS011;4762;48.128;11.376;2024-01-30T03:57:57;4.80;;;2.23;;
9447;SDS011;4762;48.128;11.376;2024-01-30T03:59:59;5.23;;;2.47;;
9447;SDS011;4762;48.128;11.376;2024-01-30T04:02:02;2.93;;;1.80;;
9447;SDS011;4762;48.128;11.376;2024-01-30T04:04:04;3.57;;;1.90;;
9447;SDS011;4762;48.128;11.376;2024-01-30T04:06:06;4.10;;;2.53;;
9447;SDS011;4762;48.128;11.376;2024-01-30T04:08:09;5.73;;;2.50;;
9447;SDS011;4762;48.128;11.376;2024-01-30T04:10:11;2.93;;;2.13;;
9447;SDS011;4762;48.128;11.376;2024-01-30T04:12:13;3.10;;;2.13;;
9447;SDS011;4762;48.128;11.376;2024-01-30T04:14:15;4.27;;;1.97;;
9447;SDS011;4762;48.128;11.376;2024-01-30T04:16:20;5.00;;;2.60;;
9447;SDS011;4762;48.128;11.376;2024-01-30T04:18:21;2.43;;;1.77;;
9447;SDS011;4762;48.128;11.376;2024-01-30T04:20:24;3.37;;;1.83;;
9447;SDS011;4762;48.128;11.376;2024-01-30T04:22:26;2.83;;;2.03;;
9447;SDS011;4762;48.128;11.376;2024-01-30T04:24:28;4.13;;;2.00;;
9447;SDS011;4762;48.128;11.376;2024-01-30T04:26:30;3.10;;;2.33;;
9447;SDS011;4762;48.128;11.376;2024-01-30T04:28:32;11.93;;;2.50;;
9447;SDS011;4762;48.128;11.376;2024-01-30T04:30:35;2.90;;;1.93;;
9447;SDS011;4762;48.128;11.376;2024-01-30T04:32:37;6.40;;;1.93;;
9447;SDS011;4762;48.128;11.376;2024-01-30T04:34:39;3.57;;;2.03;;
9447;SDS011;4762;48.128;11.376;2024-01-30T04:36:43;3.40;;;1.43;;
9447;SDS011;4762;48.128;11.376;2024-01-30T04:38:44;2.60;;;1.90;;
9447;SDS011;4762;48.128;11.376;2024-01-30T04:40:46;2.77;;;1.50;;
9447;SDS011;4762;48.128;11.376;2024-01-30T04:42:48;3.40;;;1.50;;
9447;SDS011;4762;48.128;11.376;2024-01-30T04:44:50;2.20;;;1.60;;
9447;SDS011;4762;48.128;11.376;2024-01-30T04:46:52;2.00;;;1.80;;
9447;SDS011;4762;48.128;11.376;2024-01-30T04:48:55;3.70;;;2.10;;
9447;SDS011;4762;48.128;11.376;2024-01-30T04:50:57;5.00;;;2.53;;
9447;SDS011;4762;48.128;11.376;2024-01-30T04:52:59;2.87;;;2.20;;
9447;SDS011;4762;48.128;11.376;2024-01-30T04:55:01;3.00;;;1.83;;
9447;SDS011;4762;48.128;11.376;2024-01-30T04:57:04;9.97;;;1.93;;
9447;SDS011;4762;48.128;11.376;2024-01-30T04:59:06;2.30;;;1.60;;
9447;SDS011;4762;48.128;11.376;2024-01-30T05:01:09;3.10;;;1.87;;
9447;SDS011;4762;48.128;11.376;2024-01-30T05:03:11;5.90;;;2.17;;
9447;SDS011;4762;48.128;11.376;2024-01-30T05:05:13;2.90;;;1.77;;
9447;SDS011;4762;48.128;11.376;2024-01-30T05:07:16;4.03;;;2.20;;
9447;SDS011;4762;48.128;11.376;2024-01-30T05:09:18;2.90;;;2.20;;
9447;SDS011;4762;48.128;11.376;2024-01-30T05:11:21;3.37;;;2.23;;
9447;SDS011;4762;48.128;11.376;2024-01-30T05:13:23;5.00;;;1.93;;
9447;SDS011;4762;48.128;11.376;2024-01-30T05:15:25;4.63;;;2.30;;
9447;SDS011;4762;48.128;11.376;2024-01-30T05:17:27;3.57;;;2.30;;
9447;SDS011;4762;48.128;11.376;2024-01-30T05:19:29;2.27;;;1.60;;
9447;SDS011;4762;48.128;11.376;2024-01-30T05:21:32;2.20;;;1.53;;
9447;SDS011;4762;48.128;11.376;2024-01-30T05:23:34;2.60;;;1.47;;
9447;SDS011;4762;48.128;11.376;2024-01-30T05:25:36;2.17;;;1.67;;
9447;SDS011;4762;48.128;11.376;2024-01-30T05:27:38;2.93;;;1.60;;
9447;SDS011;4762;48.128;11.376;2024-01-30T05:29:41;7.00;;;2.00;;
9447;SDS011;4762;48.128;11.376;2024-01-30T05:31:43;2.97;;;1.90;;
9447;SDS011;4762;48.128;11.376;2024-01-30T05:33:45;3.40;;;1.57;;
9447;SDS011;4762;48.128;11.376;2024-01-30T05:35:47;3.60;;;2.20;;
9447;SDS011;4762;48.128;11.376;2024-01-30T05:37:49;2.60;;;2.10;;
9447;SDS011;4762;48.128;11.376;2024-01-30T05:39:52;8.83;;;2.10;;
9447;SDS011;4762;48.128;11.376;2024-01-30T05:41:54;4.40;;;2.10;;
9447;SDS011;4762;48.128;11.376;2024-01-30T05:43:56;3.33;;;2.20;;
9447;SDS011;4762;48.128;11.376;2024-01-30T05:45:59;2.90;;;1.90;;
9447;SDS011;4762;48.128;11.376;2024-01-30T05:48:01;2.80;;;1.70;;
9447;SDS011;4762;48.128;11.376;2024-01-30T05:50:03;2.03;;;1.37;;
9447;SDS011;4762;48.128;11.376;2024-01-30T05:52:06;2.17;;;1.40;;
9447;SDS011;4762;48.128;11.376;2024-01-30T05:54:08;4.33;;;2.37;;
9447;SDS011;4762;48.128;11.376;2024-01-30T05:56:10;3.17;;;1.70;;
9447;SDS011;4762;48.128;11.376;2024-01-30T05:58:14;2.03;;;1.30;;
9447;SDS011;4762;48.128;11.376;2024-01-30T06:00:16;4.97;;;1.90;;
9447;SDS011;4762;48.128;11.376;2024-01-30T06:02:18;3.10;;;1.80;;
9447;SDS011;4762;48.128;11.376;2024-01-30T06:04:21;2.23;;;1.40;;
9447;SDS011;4762;48.128;11.376;2024-01-30T06:06:23;2.50;;;1.70;;
9447;SDS011;4762;48.128;11.376;2024-01-30T06:08:25;5.23;;;3.03;;
9447;SDS011;4762;48.128;11.376;2024-01-30T06:10:27;2.40;;;1.40;;
9447;SDS011;4762;48.128;11.376;2024-01-30T06:12:30;2.60;;;1.73;;
9447;SDS011;4762;48.128;11.376;2024-01-30T06:14:32;4.07;;;2.00;;
9447;SDS011;4762;48.128;11.376;2024-01-30T06:16:34;3.60;;;2.23;;
9447;SDS011;4762;48.128;11.376;2024-01-30T06:18:36;2.20;;;1.37;;
9447;SDS011;4762;48.128;11.376;2024-01-30T06:20:39;2.40;;;1.70;;
9447;SDS011;4762;48.128;11.376;2024-01-30T06:22:41;3.03;;;1.53;;
9447;SDS011;4762;48.128;11.376;2024-01-30T06:24:43;1.60;;;1.20;;
9447;SDS011;4762;48.128;11.376;2024-01-30T06:26:46;1.80;;;1.30;;
9447;SDS011;4762;48.128;11.376;2024-01-30T06:28:48;6.43;;;2.10;;
9447;SDS011;4762;48.128;11.376;2024-01-30T06:30:51;5.13;;;2.50;;
9447;SDS011;4762;48.128;11.376;2024-01-30T06:32:53;2.57;;;1.60;;
9447;SDS011;4762;48.128;11.376;2024-01-30T06:34:55;2.57;;;1.97;;
9447;SDS011;4762;48.128;11.376;2024-01-30T06:36:57;3.30;;;2.00;;
9447;SDS011;4762;48.128;11.376;2024-01-30T06:39:00;3.13;;;1.80;;
9447;SDS011;4762;48.128;11.376;2024-01-30T06:41:02;5.93;;;2.00;;
9447;SDS011;4762;48.128;11.376;2024-01-30T06:43:04;2.03;;;1.53;;
9447;SDS011;4762;48.128;11.376;2024-01-30T06:45:06;2.70;;;1.53;;
9447;SDS011;4762;48.128;11.376;2024-01-30T06:47:10;4.90;;;2.33;;
9447;SDS011;4762;48.128;11.376;2024-01-30T06:49:12;2.70;;;1.80;;
9447;SDS011;4762;48.128;11.376;2024-01-30T06:51:14;3.20;;;1.80;;
9447;SDS011;4762;48.128;11.376;2024-01-30T06:53:16;2.93;;;1.80;;
9447;SDS011;4762;48.128;11.376;2024-01-30T06:55:18;4.40;;;2.40;;
9447;SDS011;4762;48.128;11.376;2024-01-30T06:57:21;3.10;;;2.10;;
9447;SDS011;4762;48.128;11.376;2024-01-30T06:59:23;7.90;;;3.47;;
9447;SDS011;4762;48.128;11.376;2024-01-30T07:01:27;8.37;;;3.37;;
9447;SDS011;4762;48.128;11.376;2024-01-30T07:03:30;9.10;;;3.57;;
9447;SDS011;4762;48.128;11.376;2024-01-30T07:05:32;8.07;;;3.23;;
9447;SDS011;4762;48.128;11.376;2024-01-30T07:07:34;7.90;;;3.20;;
9447;SDS011;4762;48.128;11.376;2024-01-30T07:09:36;5.30;;;3.53;;
9447;SDS011;4762;48.128;11.376;2024-01-30T07:11:39;4.90;;;3.57;;
9447;SDS011;4762;48.128;11.376;2024-01-30T07:13:41;5.13;;;2.50;;
9447;SDS011;4762;48.128;11.376;2024-01-30T07:15:43;5.83;;;3.20;;
9447;SDS011;4762;48.128;11.376;2024-01-30T07:17:45;8.40;;;4.47;;
9447;SDS011;4762;48.128;11.376;2024-01-30T07:19:47;10.40;;;3.83;;
9447;SDS011;4762;48.128;11.376;2024-01-30T07:21:50;7.73;;;3.90;;
9447;SDS011;4762;48.128;11.376;2024-01-30T07:23:52;8.03;;;3.93;;
9447;SDS011;4762;48.128;11.376;2024-01-30T07:25:54;12.60;;;4.60;;
9447;SDS011;4762;48.128;11.376;2024-01-30T07:27:56;6.10;;;3.63;;
9447;SDS011;4762;48.128;11.376;2024-01-30T07:29:59;6.27;;;4.13;;
9447;SDS011;4762;48.128;11.376;2024-01-30T07:32:01;8.97;;;4.37;;
9447;SDS011;4762;48.128;11.376;2024-01-30T07:34:03;5.20;;;3.83;;
9447;SDS011;4762;48.128;11.376;2024-01-30T07:36:05;8.77;;;4.67;;
9447;SDS011;4762;48.128;11.376;2024-01-30T07:38:08;7.20;;;4.00;;
9447;SDS011;4762;48.128;11.376;2024-01-30T07:40:10;10.30;;;3.83;;
9447;SDS011;4762;48.128;11.376;2024-01-30T07:42:12;7.83;;;4.23;;
9447;SDS011;4762;48.128;11.376;2024-01-30T07:44:14;11.93;;;5.30;;
9447;SDS011;4762;48.128;11.376;2024-01-30T07:46:17;9.20;;;5.10;;
9447;SDS011;4762;48.128;11.376;2024-01-30T07:48:19;8.23;;;4.60;;
9447;SDS011;4762;48.128;11.376;2024-01-30T07:50:22;11.00;;;5.37;;
9447;SDS011;4762;48.128;11.376;2024-01-30T07:52:24;7.10;;;4.43;;
9447;SDS011;4762;48.128;11.376;2024-01-30T07:54:26;7.40;;;3.90;;
9447;SDS011;4762;48.128;11.376;2024-01-30T07:56:29;6.90;;;4.33;;
9447;SDS011;4762;48.128;11.376;2024-01-30T07:58:31;9.23;;;4.20;;
9447;SDS011;4762;48.128;11.376;2024-01-30T08:00:33;14.60;;;5.77;;
9447;SDS011;4762;48.128;11.376;2024-01-30T08:02:35;6.70;;;4.37;;
9447;SDS011;4762;48.128;11.376;2024-01-30T08:04:38;5.20;;;3.13;;
9447;SDS011;4762;48.128;11.376;2024-01-30T08:06:41;5.10;;;3.13;;
9447;SDS011;4762;48.128;11.376;2024-01-30T08:08:43;6.27;;;3.70;;
9447;SDS011;4762;48.128;11.376;2024-01-30T08:10:45;3.20;;;2.40;;
9447;SDS011;4762;48.128;11.376;2024-01-30T08:12:47;5.27;;;3.00;;
9447;SDS011;4762;48.128;11.376;2024-01-30T08:14:49;7.97;;;4.27;;
9447;SDS011;4762;48.128;11.376;2024-01-30T08:16:52;6.23;;;4.30;;
9447;SDS011;4762;48.128;11.376;2024-01-30T08:18:54;7.17;;;2.67;;
9447;SDS011;4762;48.128;11.376;2024-01-30T08:20:56;10.20;;;4.27;;
9447;SDS011;4762;48.128;11.376;2024-01-30T08:22:58;3.30;;;2.47;;
9447;SDS011;4762;48.128;11.376;2024-01-30T08:25:01;4.33;;;3.17;;
9447;SDS011;4762;48.128;11.376;2024-01-30T08:27:03;7.53;;;3.07;;
9447;SDS011;4762;48.128;11.376;2024-01-30T08:29:05;7.50;;;5.80;;
9447;SDS011;4762;48.128;11.376;2024-01-30T08:31:09;6.80;;;2.93;;
9447;SDS011;4762;48.128;11.376;2024-01-30T08:33:10;4.20;;;2.57;;
9447;SDS011;4762;48.128;11.376;2024-01-30T08:35:12;5.70;;;3.17;;
9447;SDS011;4762;48.128;11.376;2024-01-30T08:37:15;4.57;;;2.93;;
9447;SDS011;4762;48.128;11.376;2024-01-30T08:39:17;8.17;;;4.63;;
9447;SDS011;4762;48.128;11.376;2024-01-30T08:41:19;3.80;;;2.43;;
9447;SDS011;4762;48.128;11.376;2024-01-30T08:43:21;4.60;;;2.70;;
9447;SDS011;4762;48.128;11.376;2024-01-30T08:45:23;6.73;;;3.27;;
9447;SDS011;4762;48.128;11.376;2024-01-30T08:47:26;4.23;;;2.77;;
9447;SDS011;4762;48.128;11.376;2024-01-30T08:49:28;4.60;;;2.80;;
9447;SDS011;4762;48.128;11.376;2024-01-30T08:51:30;5.50;;;3.00;;
9447;SDS011;4762;48.128;11.376;2024-01-30T08:53:32;5.10;;;3.30;;
9447;SDS011;4762;48.128;11.376;2024-01-30T08:55:34;6.17;;;2.90;;
9447;SDS011;4762;48.128;11.376;2024-01-30T08:57:37;9.23;;;3.00;;
9447;SDS011;4762;48.128;11.376;2024-01-30T08:59:39;7.90;;;3.90;;
9447;SDS011;4762;48.128;11.376;2024-01-30T09:01:41;5.20;;;3.17;;
9447;SDS011;4762;48.128;11.376;2024-01-30T09:03:43;7.37;;;3.60;;
9447;SDS011;4762;48.128;11.376;2024-01-30T09:05:45;3.07;;;2.20;;
9447;SDS011;4762;48.128;11.376;2024-01-30T09:07:48;2.23;;;1.80;;
9447;SDS011;4762;48.128;11.376;2024-01-30T09:09:50;3.07;;;1.60;;
9447;SDS011;4762;48.128;11.376;2024-01-30T09:11:52;2.80;;;1.83;;
9447;SDS011;4762;48.128;11.376;2024-01-30T09:13:54;2.33;;;1.50;;
9447;SDS011;4762;48.128;11.376;2024-01-30T09:15:56;2.20;;;1.63;;
9447;SDS011;4762;48.128;11.376;2024-01-30T09:17:59;3.60;;;2.17;;
9447;SDS011;4762;48.128;11.376;2024-01-30T09:20:01;4.10;;;1.80;;
9447;SDS011;4762;48.128;11.376;2024-01-30T09:22:03;3.30;;;2.10;;
9447;SDS011;4762;48.128;11.376;2024-01-30T09:24:06;4.63;;;1.77;;
9447;SDS011;4762;48.128;11.376;2024-01-30T09:26:09;3.40;;;2.33;;
9447;SDS011;4762;48.128;11.376;2024-01-30T09:28:11;2.90;;;1.87;;
9447;SDS011;4762;48.128;11.376;2024-01-30T09:30:13;3.10;;;2.00;;
9447;SDS011;4762;48.128;11.376;2024-01-30T09:32:16;5.50;;;2.13;;
9447;SDS011;4762;48.128;11.376;2024-01-30T09:34:18;3.70;;;1.70;;
9447;SDS011;4762;48.128;11.376;2024-01-30T09:36:21;2.70;;;2.03;;
9447;SDS011;4762;48.128;11.376;2024-01-30T09:38:23;2.47;;;1.73;;
9447;SDS011;4762;48.128;11.376;2024-01-30T09:40:25;2.70;;;1.80;;
9447;SDS011;4762;48.128;11.376;2024-01-30T09:42:29;2.67;;;1.60;;
9447;SDS011;4762;48.128;11.376;2024-01-30T09:44:30;8.40;;;1.93;;
9447;SDS011;4762;48.128;11.376;2024-01-30T09:46:32;2.73;;;1.50;;
9447;SDS011;4762;48.128;11.376;2024-01-30T09:48:35;2.90;;;1.40;;
9447;SDS011;4762;48.128;11.376;2024-01-30T09:50:37;2.83;;;1.50;;
9447;SDS011;4762;48.128;11.376;2024-01-30T09:52:39;4.10;;;1.70;;
9447;SDS011;4762;48.128;11.376;2024-01-30T09:54:41;4.97;;;1.83;;
9447;SDS011;4762;48.128;11.376;2024-01-30T09:56:44;3.20;;;2.00;;
9447;SDS011;4762;48.128;11.376;2024-01-30T09:58:46;2.73;;;1.77;;
9447;SDS011;4762;48.128;11.376;2024-01-30T10:00:48;2.60;;;1.60;;
9447;SDS011;4762;48.128;11.376;2024-01-30T10:02:50;4.70;;;2.30;;
9447;SDS011;4762;48.128;11.376;2024-01-30T10:04:52;3.00;;;1.80;;
9447;SDS011;4762;48.128;11.376;2024-01-30T10:06:55;3.50;;;1.97;;
9447;SDS011;4762;48.128;11.376;2024-01-30T10:08:57;2.87;;;1.73;;
9447;SDS011;4762;48.128;11.376;2024-01-30T10:10:59;4.33;;;1.50;;
9447;SDS011;4762;48.128;11.376;2024-01-30T10:13:02;2.70;;;1.73;;
9447;SDS011;4762;48.128;11.376;2024-01-30T10:15:06;5.90;;;1.90;;
9447;SDS011;4762;48.128;11.376;2024-01-30T10:17:09;6.70;;;2.10;;
9447;SDS011;4762;48.128;11.376;2024-01-30T10:19:11;5.93;;;2.20;;
9447;SDS011;4762;48.128;11.376;2024-01-30T10:21:13;3.13;;;1.87;;
9447;SDS011;4762;48.128;11.376;2024-01-30T10:23:16;3.57;;;2.17;;
9447;SDS011;4762;48.128;11.376;2024-01-30T10:25:18;5.80;;;2.30;;
9447;SDS011;4762;48.128;11.376;2024-01-30T10:27:25;4.93;;;2.33;;
9447;SDS011;4762;48.128;11.376;2024-01-30T10:29:27;7.60;;;2.40;;
9447;SDS011;4762;48.128;11.376;2024-01-30T10:31:29;5.50;;;2.57;;
9447;SDS011;4762;48.128;11.376;2024-01-30T10:33:31;3.00;;;1.80;;
9447;SDS011;4762;48.128;11.376;2024-01-30T10:35:34;5.23;;;2.60;;
9447;SDS011;4762;48.128;11.376;2024-01-30T10:37:36;3.10;;;1.97;;
9447;SDS011;4762;48.128;11.376;2024-01-30T10:39:38;2.80;;;1.67;;
9447;SDS011;4762;48.128;11.376;2024-01-30T10:41:43;2.73;;;1.30;;
9447;SDS011;4762;48.128;11.376;2024-01-30T10:43:47;4.20;;;1.90;;
9447;SDS011;4762;48.128;11.376;2024-01-30T10:45:47;4.10;;;1.67;;
9447;SDS011;4762;48.128;11.376;2024-01-30T10:47:50;4.07;;;2.00;;
9447;SDS011;4762;48.128;11.376;2024-01-30T10:49:52;4.23;;;2.10;;
9447;SDS011;4762;48.128;11.376;2024-01-30T10:51:54;3.57;;;1.57;;
9447;SDS011;4762;48.128;11.376;2024-01-30T10:53:56;2.50;;;1.10;;
9447;SDS011;4762;48.128;11.376;2024-01-30T10:56:00;2.63;;;1.23;;
9447;SDS011;4762;48.128;11.376;2024-01-30T10:58:03;2.40;;;1.07;;
9447;SDS011;4762;48.128;11.376;2024-01-30T11:02:16;3.17;;;1.20;;
9447;SDS011;4762;48.128;11.376;2024-01-30T11:04:18;3.27;;;1.50;;
9447;SDS011;4762;48.128;11.376;2024-01-30T11:08:33;3.47;;;1.23;;
9447;SDS011;4762;48.128;11.376;2024-01-30T11:10:44;2.63;;;1.33;;
9447;SDS011;4762;48.128;11.376;2024-01-30T11:12:39;3.57;;;0.87;;
9447;SDS011;4762;48.128;11.376;2024-01-30T11:14:42;2.53;;;0.83;;
9447;SDS011;4762;48.128;11.376;2024-01-30T11:16:45;2.37;;;0.90;;
9447;SDS011;4762;48.128;11.376;2024-01-30T11:18:50;2.50;;;1.20;;
9447;SDS011;4762;48.128;11.376;2024-01-30T11:20:55;4.33;;;1.00;;
9447;SDS011;4762;48.128;11.376;2024-01-30T11:23:00;3.43;;;1.50;;
9447;SDS011;4762;48.128;11.376;2024-01-30T11:25:02;3.00;;;1.60;;
9447;SDS011;4762;48.128;11.376;2024-01-30T11:27:07;4.83;;;1.83;;
9447;SDS011;4762;48.128;11.376;2024-01-30T11:29:07;2.80;;;1.33;;
9447;SDS011;4762;48.128;11.376;2024-01-30T11:31:09;4.10;;;1.60;;
9447;SDS011;4762;48.128;11.376;2024-01-30T11:33:12;2.47;;;1.07;;
9447;SDS011;4762;48.128;11.376;2024-01-30T11:35:15;2.30;;;1.07;;
9447;SDS011;4762;48.128;11.376;2024-01-30T11:37:17;2.30;;;0.80;;
9447;SDS011;4762;48.128;11.376;2024-01-30T11:39:19;3.27;;;1.00;;
9447;SDS011;4762;48.128;11.376;2024-01-30T11:41:22;3.27;;;1.13;;
9447;SDS011;4762;48.128;11.376;2024-01-30T11:43:25;4.83;;;1.73;;
9447;SDS011;4762;48.128;11.376;2024-01-30T11:45:27;3.87;;;1.53;;
9447;SDS011;4762;48.128;11.376;2024-01-30T11:47:29;2.90;;;1.20;;
9447;SDS011;4762;48.128;11.376;2024-01-30T11:49:31;7.90;;;1.37;;
9447;SDS011;4762;48.128;11.376;2024-01-30T11:51:34;4.40;;;1.50;;
9447;SDS011;4762;48.128;11.376;2024-01-30T11:53:36;5.00;;;1.57;;
9447;SDS011;4762;48.128;11.376;2024-01-30T11:55:38;3.17;;;1.10;;
9447;SDS011;4762;48.128;11.376;2024-01-30T11:57:41;4.33;;;1.20;;
9447;SDS011;4762;48.128;11.376;2024-01-30T11:59:43;2.90;;;1.20;;
9447;SDS011;4762;48.128;11.376;2024-01-30T12:01:45;4.07;;;1.63;;
9447;SDS011;4762;48.128;11.376;2024-01-30T12:03:49;3.53;;;1.23;;
9447;SDS011;4762;48.128;11.376;2024-01-30T12:05:55;3.90;;;1.83;;
9447;SDS011;4762;48.128;11.376;2024-01-30T12:07:57;4.00;;;1.33;;
9447;SDS011;4762;48.128;11.376;2024-01-30T12:09:59;3.83;;;1.40;;
9447;SDS011;4762;48.128;11.376;2024-01-30T12:12:02;4.33;;;1.43;;
9447;SDS011;4762;48.128;11.376;2024-01-30T12:14:05;3.07;;;1.20;;
9447;SDS011;4762;48.128;11.376;2024-01-30T12:16:07;4.77;;;1.57;;
9447;SDS011;4762;48.128;11.376;2024-01-30T12:18:09;2.80;;;0.90;;
9447;SDS011;4762;48.128;11.376;2024-01-30T12:20:12;3.23;;;0.90;;
9447;SDS011;4762;48.128;11.376;2024-01-30T12:22:14;3.00;;;0.90;;
9447;SDS011;4762;48.128;11.376;2024-01-30T12:24:17;3.93;;;1.60;;
9447;SDS011;4762;48.128;11.376;2024-01-30T12:26:19;3.30;;;1.10;;
9447;SDS011;4762;48.128;11.376;2024-01-30T12:28:24;2.90;;;1.10;;
9447;SDS011;4762;48.128;11.376;2024-01-30T12:30:27;10.03;;;1.50;;
9447;SDS011;4762;48.128;11.376;2024-01-30T12:32:33;3.80;;;1.37;;